createdAt,value
2019-02-25T00:02:05.181Z,63.46
2019-02-25T00:04:36.898Z,62.90
2019-02-25T00:07:07.530Z,64.69
2019-02-25T00:09:39.378Z,64.58
2019-02-25T00:12:10.655Z,63.94
2019-02-25T00:14:42.663Z,64.95
2019-02-25T00:17:13.710Z,65.96
2019-02-25T00:19:45.230Z,65.85
2019-02-25T00:22:16.504Z,67.05
2019-02-25T00:24:48.268Z,67.49
2019-02-25T00:27:19.701Z,68.09
2019-02-25T00:29:50.752Z,68.30
2019-02-25T00:32:22.462Z,68.94
2019-02-25T00:34:55.010Z,69.32
2019-02-25T00:37:26.126Z,69.39
2019-02-25T00:39:57.055Z,69.66
2019-02-25T00:42:29.044Z,70.04
2019-02-25T00:45:00.811Z,70.33
2019-02-25T00:47:33.782Z,69.41
2019-02-25T00:50:08.612Z,69.30
2019-02-25T00:52:39.821Z,69.49
2019-02-25T00:55:11.363Z,68.41
2019-02-25T00:57:42.416Z,67.84
2019-02-25T01:00:16.983Z,68.46
2019-02-25T01:02:48.807Z,68.44
2019-02-25T01:05:22.141Z,68.20
2019-02-25T01:07:54.350Z,67.86
2019-02-25T01:10:26.042Z,68.69
2019-02-25T01:12:57.031Z,68.69
2019-02-25T01:15:28.823Z,70.44
2019-02-25T01:18:00.156Z,70.94
2019-02-25T01:20:32.116Z,70.22
2019-02-25T01:23:03.665Z,70.34
2019-02-25T01:25:35.112Z,70.34
2019-02-25T01:28:07.965Z,70.21
2019-02-25T01:30:40.702Z,70.67
2019-02-25T01:33:11.544Z,70.56
2019-02-25T01:35:42.850Z,70.74
2019-02-25T01:38:15.605Z,70.74
2019-02-25T01:40:47.212Z,70.03
2019-02-25T01:43:18.781Z,70.03
2019-02-25T01:45:49.371Z,70.75
2019-02-25T01:48:20.777Z,71.29
2019-02-25T01:50:52.710Z,71.29
2019-02-25T01:53:23.543Z,70.68
2019-02-25T01:55:54.965Z,70.68
2019-02-25T01:58:26.340Z,70.99
2019-02-25T02:00:59.161Z,71.41
2019-02-25T02:03:30.435Z,71.74
2019-02-25T02:06:02.238Z,71.43
2019-02-25T02:08:33.984Z,72.05
2019-02-25T02:11:05.843Z,72.32
2019-02-25T02:13:38.272Z,72.32
2019-02-25T02:16:10.299Z,72.32
2019-02-25T02:18:41.440Z,72.72
2019-02-25T02:21:13.027Z,72.18
2019-02-25T02:23:43.853Z,71.76
2019-02-25T02:26:15.302Z,71.78
2019-02-25T02:28:47.025Z,71.82
2019-02-25T02:31:18.625Z,70.94
2019-02-25T02:33:50.005Z,71.29
2019-02-25T02:36:21.616Z,71.03
2019-02-25T02:38:52.730Z,71.26
2019-02-25T02:41:23.951Z,72.16
2019-02-25T02:43:56.484Z,72.67
2019-02-25T02:46:31.716Z,72.63
2019-02-25T02:49:03.382Z,72.85
2019-02-25T02:51:34.623Z,72.87
2019-02-25T02:54:05.632Z,72.37
2019-02-25T02:56:36.457Z,72.51
2019-02-25T02:59:09.485Z,72.81
2019-02-25T03:01:40.665Z,72.54
2019-02-25T03:04:11.463Z,72.16
2019-02-25T03:06:42.521Z,72.03
2019-02-25T03:09:14.663Z,72.05
2019-02-25T03:11:46.081Z,71.96
2019-02-25T03:14:16.874Z,71.86
2019-02-25T03:16:48.547Z,71.62
2019-02-25T03:19:20.195Z,71.57
2019-02-25T03:21:52.523Z,71.11
2019-02-25T03:24:25.072Z,70.48
2019-02-25T03:26:56.399Z,71.19
2019-02-25T03:29:27.712Z,70.50
2019-02-25T03:31:58.857Z,70.39
2019-02-25T03:34:29.463Z,70.39
2019-02-25T03:37:00.903Z,69.81
2019-02-25T03:39:32.192Z,69.54
2019-02-25T03:42:04.124Z,69.54
2019-02-25T03:44:35.377Z,69.23
2019-02-25T03:47:06.372Z,69.11
2019-02-25T03:49:37.923Z,69.22
2019-02-25T03:52:10.235Z,69.22
2019-02-25T03:54:41.784Z,69.12
2019-02-25T03:57:17.265Z,69.19
2019-02-25T03:59:47.720Z,68.67
2019-02-25T04:02:19.838Z,68.65
2019-02-25T04:04:50.736Z,68.71
2019-02-25T04:07:22.820Z,68.49
2019-02-25T04:09:54.791Z,68.89
2019-02-25T04:12:26.903Z,68.89
2019-02-25T04:14:58.615Z,68.92
2019-02-25T04:17:29.478Z,69.13
2019-02-25T04:20:00.355Z,68.49
2019-02-25T04:22:31.916Z,68.38
2019-02-25T04:25:03.091Z,67.99
2019-02-25T04:27:34.097Z,67.99
2019-02-25T04:30:08.503Z,68.19
2019-02-25T04:32:39.668Z,68.78
2019-02-25T04:35:11.373Z,68.91
2019-02-25T04:37:41.982Z,68.80
2019-02-25T04:40:15.140Z,68.45
2019-02-25T04:42:47.017Z,68.03
2019-02-25T04:45:20.923Z,67.57
2019-02-25T04:47:51.968Z,67.39
2019-02-25T04:50:23.819Z,67.03
2019-02-25T04:52:54.996Z,67.03
2019-02-25T04:55:26.731Z,67.02
2019-02-25T04:57:58.704Z,67.00
2019-02-25T05:00:29.663Z,66.88
2019-02-25T05:03:00.137Z,66.74
2019-02-25T05:05:31.215Z,66.89
2019-02-25T05:08:02.634Z,66.91
2019-02-25T05:10:34.158Z,66.97
2019-02-25T05:13:06.402Z,66.84
2019-02-25T05:15:38.478Z,66.78
2019-02-25T05:18:11.290Z,66.36
2019-02-25T05:20:42.525Z,66.70
2019-02-25T05:23:14.089Z,66.70
2019-02-25T05:25:45.159Z,66.61
2019-02-25T05:28:17.088Z,66.61
2019-02-25T05:30:48.950Z,66.23
2019-02-25T05:33:20.250Z,66.54
2019-02-25T05:35:51.304Z,66.55
2019-02-25T05:38:23.460Z,66.60
2019-02-25T05:40:55.887Z,66.89
2019-02-25T05:43:26.825Z,66.89
2019-02-25T05:45:58.502Z,66.96
2019-02-25T05:48:29.780Z,67.24
2019-02-25T05:51:01.414Z,67.56
2019-02-25T05:53:31.940Z,67.81
2019-02-25T05:56:03.460Z,68.09
2019-02-25T05:58:34.540Z,68.20
2019-02-25T06:01:05.573Z,68.35
2019-02-25T06:03:36.977Z,68.34
2019-02-25T06:06:08.689Z,68.64
2019-02-25T06:08:40.141Z,68.64
2019-02-25T06:11:10.639Z,68.56
2019-02-25T06:13:41.171Z,68.53
2019-02-25T06:16:12.844Z,68.81
2019-02-25T06:18:43.660Z,68.92
2019-02-25T06:21:14.804Z,69.12
2019-02-25T06:23:46.665Z,69.51
2019-02-25T06:26:18.180Z,69.33
2019-02-25T06:28:49.769Z,69.19
2019-02-25T06:31:21.140Z,69.31
2019-02-25T06:33:52.262Z,69.40
2019-02-25T06:36:23.820Z,69.26
2019-02-25T06:38:55.194Z,69.20
2019-02-25T06:41:27.380Z,69.48
2019-02-25T06:43:58.620Z,69.43
2019-02-25T06:46:30.102Z,69.56
2019-02-25T06:49:01.300Z,69.27
2019-02-25T06:51:32.968Z,69.01
2019-02-25T06:54:03.371Z,69.01
2019-02-25T06:56:34.496Z,68.85
2019-02-25T06:59:06.455Z,68.68
2019-02-25T07:01:37.199Z,68.41
2019-02-25T07:04:10.429Z,68.20
2019-02-25T07:06:42.637Z,68.09
2019-02-25T07:09:15.907Z,67.92
2019-02-25T07:11:49.664Z,67.55
2019-02-25T07:14:22.183Z,67.56
2019-02-25T07:16:57.244Z,67.63
2019-02-25T07:19:30.262Z,67.42
2019-02-25T07:22:03.276Z,67.28
2019-02-25T07:24:35.823Z,67.04
2019-02-25T07:27:08.334Z,66.85
2019-02-25T07:29:41.421Z,66.88
2019-02-25T07:32:15.059Z,66.64
2019-02-25T07:34:48.759Z,66.90
2019-02-25T07:37:21.457Z,66.99
2019-02-25T07:39:54.441Z,66.78
2019-02-25T07:42:27.161Z,66.71
2019-02-25T07:45:00.153Z,66.82
2019-02-25T07:47:33.099Z,66.78
2019-02-25T07:50:07.061Z,66.57
2019-02-25T07:52:39.681Z,66.28
2019-02-25T07:55:13.391Z,66.42
2019-02-25T07:57:46.032Z,66.35
2019-02-25T08:00:19.052Z,66.34
2019-02-25T08:02:52.652Z,65.92
2019-02-25T08:05:26.109Z,65.91
2019-02-25T08:07:58.397Z,66.14
2019-02-25T08:10:31.792Z,65.63
2019-02-25T08:13:05.685Z,65.69
2019-02-25T08:15:39.338Z,65.62
2019-02-25T08:18:12.217Z,65.87
2019-02-25T08:20:45.376Z,65.78
2019-02-25T08:23:18.395Z,65.67
2019-02-25T08:25:52.053Z,65.37
2019-02-25T08:28:22.475Z,64.79
2019-02-25T08:30:55.566Z,64.91
2019-02-25T08:33:30.781Z,65.11
2019-02-25T08:36:06.171Z,65.28
2019-02-25T08:38:37.661Z,65.06
2019-02-25T08:41:14.483Z,65.04
2019-02-25T08:43:47.383Z,65.01
2019-02-25T08:46:19.975Z,64.93
2019-02-25T08:48:52.796Z,65.09
2019-02-25T08:51:24.141Z,64.86
2019-02-25T08:53:55.784Z,64.98
2019-02-25T08:56:28.917Z,64.71
2019-02-25T08:59:01.367Z,64.85
2019-02-25T09:01:32.660Z,64.50
2019-02-25T09:04:05.346Z,64.35
2019-02-25T09:06:36.649Z,64.31
2019-02-25T09:09:08.275Z,64.38
2019-02-25T09:11:40.174Z,64.56
2019-02-25T09:14:12.073Z,64.19
2019-02-25T09:16:43.988Z,64.29
2019-02-25T09:19:15.425Z,64.00
2019-02-25T09:21:46.739Z,63.85
2019-02-25T09:24:18.565Z,64.13
2019-02-25T09:26:49.723Z,64.06
2019-02-25T09:29:21.771Z,64.44
2019-02-25T09:31:53.224Z,64.49
2019-02-25T09:34:24.512Z,64.55
2019-02-25T09:36:57.205Z,64.33
2019-02-25T09:39:28.493Z,64.69
2019-02-25T09:41:59.805Z,64.80
2019-02-25T09:44:31.534Z,64.77
2019-02-25T09:47:05.161Z,65.25
2019-02-25T09:49:36.839Z,66.15
2019-02-25T09:52:10.348Z,64.98
2019-02-25T09:54:42.689Z,64.99
2019-02-25T09:57:15.316Z,65.85
2019-02-25T09:59:48.649Z,65.67
2019-02-25T10:02:20.014Z,66.13
2019-02-25T10:04:51.363Z,65.54
2019-02-25T10:07:24.220Z,65.83
2019-02-25T10:09:55.376Z,65.36
2019-02-25T10:12:26.662Z,65.27
2019-02-25T10:14:57.907Z,65.20
2019-02-25T10:17:29.162Z,65.26
2019-02-25T10:20:00.888Z,65.55
2019-02-25T10:22:33.856Z,64.90
2019-02-25T10:25:08.602Z,65.21
2019-02-25T10:27:41.323Z,64.84
2019-02-25T10:30:15.057Z,63.95
2019-02-25T10:32:46.605Z,63.39
2019-02-25T10:35:21.280Z,63.69
2019-02-25T10:37:53.704Z,62.63
2019-02-25T10:40:27.434Z,62.85
2019-02-25T10:42:57.916Z,62.30
2019-02-25T10:45:29.327Z,61.51
2019-02-25T10:48:01.192Z,61.50
2019-02-25T10:50:33.467Z,60.25
2019-02-25T10:53:06.889Z,59.99
2019-02-25T10:55:45.042Z,58.61
2019-02-25T10:58:15.873Z,57.43
2019-02-25T11:00:47.391Z,57.60
2019-02-25T11:03:21.739Z,56.87
2019-02-25T11:05:53.939Z,57.21
2019-02-25T11:08:26.942Z,56.07
2019-02-25T11:10:59.789Z,55.52
2019-02-25T11:13:33.591Z,55.26
2019-02-25T11:16:04.954Z,55.08
2019-02-25T11:18:37.277Z,55.90
2019-02-25T11:21:10.637Z,55.40
2019-02-25T11:23:43.407Z,55.58
2019-02-25T11:26:16.827Z,55.71
2019-02-25T11:28:49.230Z,55.86
2019-02-25T11:31:24.553Z,55.74
2019-02-25T11:33:56.254Z,56.49
2019-02-25T11:36:27.658Z,55.43
2019-02-25T11:39:00.666Z,54.85
2019-02-25T11:41:34.337Z,54.18
2019-02-25T11:44:05.306Z,52.70
2019-02-25T11:46:36.170Z,51.86
2019-02-25T11:49:07.302Z,50.29
2019-02-25T11:51:38.896Z,49.28
2019-02-25T11:54:11.137Z,49.07
2019-02-25T11:56:43.556Z,47.64
2019-02-25T11:59:16.452Z,44.88
2019-02-25T12:01:49.447Z,44.23
2019-02-25T12:04:20.941Z,43.28
2019-02-25T12:06:53.492Z,43.85
2019-02-25T12:09:25.843Z,43.13
2019-02-25T12:11:57.356Z,43.91
2019-02-25T12:14:29.144Z,43.81
2019-02-25T12:17:00.282Z,44.26
2019-02-25T12:19:31.261Z,44.69
2019-02-25T12:22:02.324Z,44.12
2019-02-25T12:24:34.772Z,44.24
2019-02-25T12:27:05.803Z,44.66
2019-02-25T12:29:38.056Z,45.05
2019-02-25T12:32:09.551Z,44.71
2019-02-25T12:34:40.824Z,44.27
2019-02-25T12:37:13.377Z,43.23
2019-02-25T12:39:44.537Z,44.46
2019-02-25T12:42:15.827Z,44.08
2019-02-25T12:44:46.686Z,42.55
2019-02-25T12:47:18.185Z,42.95
2019-02-25T12:49:49.415Z,41.47
2019-02-25T12:52:20.811Z,37.69
2019-02-25T12:54:52.140Z,35.71
2019-02-25T12:57:23.470Z,35.36
2019-02-25T12:59:55.091Z,36.22
2019-02-25T13:02:26.862Z,36.63
2019-02-25T13:04:58.320Z,37.00
2019-02-25T13:07:29.182Z,36.98
2019-02-25T13:10:00.299Z,36.56
2019-02-25T13:12:31.813Z,36.53
2019-02-25T13:15:12.871Z,37.03
2019-02-25T13:17:35.684Z,37.46
2019-02-25T13:20:09.711Z,37.80
2019-02-25T13:22:40.999Z,37.61
2019-02-25T13:25:16.133Z,36.85
2019-02-25T13:27:48.994Z,36.48
2019-02-25T13:30:21.494Z,36.80
2019-02-25T13:32:52.720Z,36.39
2019-02-25T13:35:24.283Z,36.33
2019-02-25T13:37:55.383Z,36.11
2019-02-25T13:40:27.942Z,35.56
2019-02-25T13:42:59.593Z,35.68
2019-02-25T13:45:31.140Z,35.03
2019-02-25T13:48:02.374Z,35.40
2019-02-25T13:50:34.601Z,36.06
2019-02-25T13:53:05.426Z,36.78
2019-02-25T13:55:41.671Z,37.18
2019-02-25T13:58:15.016Z,37.33
2019-02-25T14:00:47.956Z,37.41
2019-02-25T14:03:19.708Z,37.61
2019-02-25T14:05:50.727Z,37.37
2019-02-25T14:08:24.682Z,37.70
2019-02-25T14:10:56.104Z,37.86
2019-02-25T14:13:27.593Z,37.73
2019-02-25T14:15:58.529Z,36.66
2019-02-25T14:18:29.714Z,37.44
2019-02-25T14:21:00.263Z,37.15
2019-02-25T14:23:40.526Z,36.61
2019-02-25T14:26:11.934Z,36.75
2019-02-25T14:28:46.724Z,36.34
2019-02-25T14:31:19.515Z,36.68
2019-02-25T14:33:52.359Z,35.67
2019-02-25T14:36:22.868Z,35.89
2019-02-25T14:38:59.479Z,35.61
2019-02-25T14:41:34.728Z,34.90
2019-02-25T14:44:10.767Z,32.59
2019-02-25T14:46:42.975Z,30.81
2019-02-25T14:49:25.792Z,30.43
2019-02-25T14:52:02.630Z,30.46
2019-02-25T14:54:40.339Z,30.55
2019-02-25T14:57:16.831Z,30.49
2019-02-25T14:59:48.033Z,30.41
2019-02-25T15:02:23.857Z,30.85
2019-02-25T15:04:57.925Z,31.20
2019-02-25T15:07:29.019Z,31.48
2019-02-25T15:10:02.092Z,31.30
2019-02-25T15:12:35.768Z,31.68
2019-02-25T15:15:09.846Z,32.48
2019-02-25T15:17:42.008Z,32.84
2019-02-25T15:20:18.627Z,33.09
2019-02-25T15:22:51.283Z,33.43
2019-02-25T15:25:22.865Z,33.98
2019-02-25T15:27:55.528Z,34.26
2019-02-25T15:30:30.377Z,34.41
2019-02-25T15:33:00.587Z,35.19
2019-02-25T15:35:34.537Z,35.64
2019-02-25T15:38:04.659Z,35.92
2019-02-25T15:40:35.618Z,36.42
2019-02-25T15:43:12.689Z,36.62
2019-02-25T15:45:43.107Z,37.05
2019-02-25T15:48:16.760Z,37.14
2019-02-25T15:50:50.322Z,37.77
2019-02-25T15:53:21.260Z,38.19
2019-02-25T15:55:52.797Z,39.27
2019-02-25T15:58:24.147Z,39.03
2019-02-25T16:00:55.901Z,39.73
2019-02-25T16:03:27.326Z,39.61
2019-02-25T16:06:01.579Z,40.00
2019-02-25T16:08:33.449Z,40.23
2019-02-25T16:11:05.395Z,40.75
2019-02-25T16:13:37.807Z,40.94
2019-02-25T16:16:09.353Z,41.00
2019-02-25T16:18:40.548Z,41.24
2019-02-25T16:21:14.769Z,41.58
2019-02-25T16:23:48.187Z,41.91
2019-02-25T16:26:20.095Z,42.39
2019-02-25T16:28:53.166Z,42.66
2019-02-25T16:31:26.453Z,43.27
2019-02-25T16:33:57.892Z,43.43
2019-02-25T16:36:31.146Z,44.18
2019-02-25T16:39:07.237Z,44.51
2019-02-25T16:41:41.763Z,44.77
2019-02-25T16:44:12.901Z,45.44
2019-02-25T16:46:46.774Z,45.76
2019-02-25T16:49:17.976Z,46.26
2019-02-25T16:51:51.070Z,46.50
2019-02-25T16:54:23.442Z,46.80
2019-02-25T16:56:58.330Z,47.03
2019-02-25T16:59:29.924Z,47.39
2019-02-25T17:02:02.311Z,47.69
2019-02-25T17:04:34.816Z,48.00
2019-02-25T17:07:05.932Z,48.55
2019-02-25T17:09:39.152Z,48.79
2019-02-25T17:12:10.832Z,49.01
2019-02-25T17:14:42.398Z,49.22
2019-02-25T17:17:14.980Z,49.52
2019-02-25T17:19:47.445Z,49.82
2019-02-25T17:22:18.763Z,49.72
2019-02-25T17:24:50.123Z,49.66
2019-02-25T17:27:23.001Z,49.85
2019-02-25T17:29:55.555Z,50.08
2019-02-25T17:32:27.209Z,50.27
2019-02-25T17:35:00.205Z,50.43
2019-02-25T17:37:33.835Z,50.79
2019-02-25T17:40:08.539Z,51.17
2019-02-25T17:42:42.575Z,51.60
2019-02-25T17:45:19.727Z,51.82
2019-02-25T17:47:58.194Z,51.96
2019-02-25T17:50:26.404Z,52.22
2019-02-25T17:52:58.714Z,52.58
2019-02-25T17:55:33.884Z,52.78
2019-02-25T17:58:04.866Z,53.07
2019-02-25T18:00:39.488Z,53.30
2019-02-25T18:03:11.126Z,53.43
2019-02-25T18:05:44.073Z,53.64
2019-02-25T18:08:15.430Z,53.99
2019-02-25T18:10:49.684Z,54.39
2019-02-25T18:13:21.938Z,54.52
2019-02-25T18:16:08.588Z,55.18
2019-02-25T18:18:41.639Z,55.37
2019-02-25T18:21:14.098Z,55.71
2019-02-25T18:23:45.058Z,55.82
2019-02-25T18:26:31.039Z,56.09
2019-02-25T18:29:11.706Z,56.31
2019-02-25T18:31:42.844Z,56.52
2019-02-25T18:34:13.737Z,56.67
2019-02-25T18:36:49.040Z,56.79
2019-02-25T18:39:25.252Z,57.21
2019-02-25T18:42:00.981Z,57.19
2019-02-25T18:44:33.388Z,57.63
2019-02-25T18:47:16.901Z,57.52
2019-02-25T18:49:50.439Z,57.46
2019-02-25T18:52:25.927Z,57.62
2019-02-25T18:55:02.870Z,57.60
2019-02-25T18:57:37.470Z,57.68
2019-02-25T19:00:15.677Z,58.06
2019-02-25T19:02:49.758Z,58.28
2019-02-25T19:05:22.904Z,58.20
2019-02-25T19:07:55.522Z,58.44
2019-02-25T19:10:26.922Z,58.84
2019-02-25T19:13:01.031Z,59.04
2019-02-25T19:15:33.198Z,59.40
2019-02-25T19:18:06.455Z,59.83
2019-02-25T19:20:38.853Z,59.81
2019-02-25T19:23:11.729Z,60.20
2019-02-25T19:25:43.116Z,60.62
2019-02-25T19:28:18.750Z,60.58
2019-02-25T19:30:47.398Z,60.68
2019-02-25T19:33:20.458Z,60.69
2019-02-25T19:35:52.541Z,60.96
2019-02-25T19:38:25.864Z,61.28
2019-02-25T19:40:57.603Z,61.72
2019-02-25T19:43:28.617Z,62.08
2019-02-25T19:46:01.611Z,62.69
2019-02-25T19:48:33.575Z,62.95
2019-02-25T19:51:06.245Z,64.30
2019-02-25T19:53:38.827Z,65.13
2019-02-25T19:56:11.096Z,65.27
2019-02-25T19:58:43.019Z,66.23
2019-02-25T20:01:14.130Z,66.46
2019-02-25T20:03:47.492Z,67.05
2019-02-25T20:06:21.043Z,67.27
2019-02-25T20:08:56.391Z,67.79
2019-02-25T20:11:32.783Z,68.18
2019-02-25T20:14:03.635Z,68.51
2019-02-25T20:16:34.487Z,69.02
2019-02-25T20:19:06.803Z,69.21
2019-02-25T20:21:38.124Z,69.39
2019-02-25T20:24:12.365Z,69.52
2019-02-25T20:26:41.729Z,69.54
2019-02-25T20:29:13.065Z,69.78
2019-02-25T20:31:44.332Z,69.69
2019-02-25T20:34:18.464Z,70.02
2019-02-25T20:36:57.842Z,69.92
2019-02-25T20:39:38.678Z,69.88
2019-02-25T20:42:21.711Z,70.17
2019-02-25T20:44:55.290Z,70.35
2019-02-25T20:47:28.657Z,70.13
2019-02-25T20:50:00.608Z,70.44
2019-02-25T20:52:34.564Z,70.38
2019-02-25T20:55:10.814Z,70.34
2019-02-25T20:57:41.799Z,70.70
2019-02-25T21:00:17.605Z,70.67
2019-02-25T21:02:48.783Z,70.46
2019-02-25T21:05:22.828Z,70.31
2019-02-25T21:07:55.497Z,70.45
2019-02-25T21:10:29.308Z,70.53
2019-02-25T21:13:02.071Z,70.38
2019-02-25T21:15:35.470Z,70.42
2019-02-25T21:18:07.700Z,70.37
2019-02-25T21:20:38.296Z,70.20
2019-02-25T21:23:12.532Z,69.90
2019-02-25T21:25:55.420Z,69.90
2019-02-25T21:28:33.494Z,69.87
2019-02-25T21:31:11.957Z,69.81
2019-02-25T21:33:45.004Z,69.74
2019-02-25T21:36:18.196Z,69.73
2019-02-25T21:38:51.605Z,69.89
2019-02-25T21:41:23.949Z,69.57
2019-02-25T21:43:58.648Z,69.28
2019-02-25T21:46:44.109Z,69.40
2019-02-25T21:49:27.017Z,69.57
2019-02-25T21:52:02.501Z,69.45
2019-02-25T21:54:37.761Z,69.50
2019-02-25T21:57:09.921Z,69.24
2019-02-25T21:59:56.306Z,69.08
2019-02-25T22:02:29.121Z,68.97
2019-02-25T22:05:01.287Z,68.81
2019-02-25T22:07:33.150Z,68.61
2019-02-25T22:10:08.363Z,68.52
2019-02-25T22:12:44.343Z,68.56
2019-02-25T22:15:18.015Z,68.54
2019-02-25T22:17:52.998Z,68.56
2019-02-25T22:20:24.974Z,68.37
2019-02-25T22:22:57.431Z,68.35
2019-02-25T22:25:29.644Z,68.29
2019-02-25T22:28:03.234Z,68.24
2019-02-25T22:30:34.124Z,68.22
2019-02-25T22:33:07.115Z,68.06
2019-02-25T22:35:40.056Z,67.86
2019-02-25T22:38:10.880Z,67.89
2019-02-25T22:40:41.809Z,67.89
2019-02-25T22:43:14.194Z,67.96
2019-02-25T22:45:45.528Z,67.97
2019-02-25T22:48:18.580Z,68.08
2019-02-25T22:50:51.274Z,67.98
2019-02-25T22:53:22.164Z,68.14
2019-02-25T22:55:54.755Z,68.21
2019-02-25T22:58:27.897Z,68.21
2019-02-25T23:01:01.343Z,68.14
2019-02-25T23:03:34.257Z,68.29
2019-02-25T23:06:09.270Z,68.47
2019-02-25T23:08:40.181Z,68.54
2019-02-25T23:11:12.543Z,68.64
2019-02-25T23:13:45.711Z,68.72
2019-02-25T23:16:18.658Z,68.91
2019-02-25T23:18:50.773Z,69.00
2019-02-25T23:21:24.051Z,69.28
2019-02-25T23:23:55.878Z,69.28
2019-02-25T23:26:27.332Z,69.42
2019-02-25T23:28:59.811Z,69.68
2019-02-25T23:31:31.166Z,69.92
2019-02-25T23:34:02.869Z,70.02
2019-02-25T23:36:34.207Z,70.13
2019-02-25T23:39:06.607Z,70.29
2019-02-25T23:41:38.987Z,70.34
2019-02-25T23:44:12.516Z,70.60
2019-02-25T23:46:43.119Z,70.78
2019-02-25T23:49:14.718Z,71.01
2019-02-25T23:51:48.058Z,71.13
2019-02-25T23:54:21.374Z,71.33
2019-02-25T23:56:53.947Z,71.58
2019-02-25T23:59:27.182Z,71.70
